Time;durP1;ratioP1;P1;durP2;ratioP2;P2;SDS_P1;SDS_P2;PMS_P1;PMS_P2;Temp;Humidity;BMP_temperature;BMP_pressure;BME280_temperature;BME280_humidity;BME280_pressure;Samples;Min_cycle;Max_cycle;Signal;HPM_P1;HPM_P2
2021/03/23 00:00:19;;;;;;;11.98;1.88;;;22.40;38.30;;;;;;5057493;28;20028;-53
2021/03/23 00:03:21;;;;;;;3.40;1.98;;;22.40;38.30;;;;;;5057445;28;20032;-51
2021/03/23 00:05:46;;;;;;;3.63;1.70;;;22.40;38.20;;;;;;5004575;28;20037;-55
2021/03/23 00:08:28;;;;;;;3.83;2.00;;;22.40;38.30;;;;;;5057064;28;20036;-56
2021/03/23 00:10:55;;;;;;;5.43;1.83;;;22.30;38.20;;;;;;5057437;28;20021;-55
2021/03/23 00:13:23;;;;;;;3.05;1.80;;;22.30;38.20;;;;;;5057397;28;20029;-53
2021/03/23 00:15:48;;;;;;;2.90;1.77;;;22.30;38.20;;;;;;5057294;28;20021;-57
2021/03/23 00:18:15;;;;;;;2.05;1.52;;;22.30;38.20;;;;;;5057128;28;20106;-55
2021/03/23 00:20:40;;;;;;;2.72;2.00;;;22.20;38.10;;;;;;5057018;28;20029;-53
2021/03/23 00:23:07;;;;;;;2.13;1.83;;;22.20;38.10;;;;;;5057096;28;20094;-53
2021/03/23 00:25:33;;;;;;;5.45;1.63;;;22.20;38.10;;;;;;5039465;28;20021;-55
2021/03/23 00:27:59;;;;;;;2.15;1.73;;;22.20;38.10;;;;;;5056430;28;20071;-55
2021/03/23 00:30:25;;;;;;;3.47;2.00;;;22.10;38.10;;;;;;5056414;28;20029;-57
2021/03/23 00:32:51;;;;;;;2.40;2.20;;;22.10;38.10;;;;;;5056494;28;20095;-55
2021/03/23 00:35:17;;;;;;;3.55;2.17;;;22.10;38.10;;;;;;5056462;28;20029;-54
2021/03/23 00:37:43;;;;;;;3.42;2.22;;;22.10;38.10;;;;;;5057028;28;20108;-52
2021/03/23 00:40:14;;;;;;;2.42;2.10;;;22.10;38.10;;;;;;5056830;28;20104;-53
2021/03/23 00:42:40;;;;;;;2.30;2.10;;;22.10;38.10;;;;;;5056703;28;20036;-54
2021/03/23 00:45:07;;;;;;;3.17;1.98;;;22.00;38.00;;;;;;5056471;28;20032;-54
2021/03/23 00:47:32;;;;;;;3.95;2.20;;;22.00;38.00;;;;;;5056503;28;20048;-53
2021/03/23 00:49:58;;;;;;;2.75;2.17;;;22.00;38.10;;;;;;5056875;28;20337;-56
2021/03/23 00:52:23;;;;;;;2.15;1.95;;;22.00;38.00;;;;;;5056388;28;20028;-53
2021/03/23 00:54:52;;;;;;;2.10;1.90;;;22.00;38.00;;;;;;5056443;28;20036;-56
2021/03/23 00:57:18;;;;;;;4.30;2.00;;;22.00;38.10;;;;;;5056307;28;20040;-49
2021/03/23 00:59:44;;;;;;;3.80;1.92;;;21.90;38.00;;;;;;5055833;28;20456;-52
2021/03/23 01:02:09;;;;;;;2.40;2.05;;;21.90;38.00;;;;;;5056165;28;20035;-55
2021/03/23 01:04:35;;;;;;;2.58;2.25;;;21.90;38.00;;;;;;5055996;28;20367;-55
2021/03/23 01:07:00;;;;;;;3.20;2.00;;;21.90;38.00;;;;;;5056421;28;20072;-52
2021/03/23 01:09:26;;;;;;;3.20;1.85;;;21.90;38.00;;;;;;5055995;28;20104;-56
2021/03/23 01:11:52;;;;;;;2.53;1.83;;;21.80;38.00;;;;;;5055804;28;20040;-54
2021/03/23 01:14:18;;;;;;;2.40;2.20;;;21.80;38.00;;;;;;5055800;28;20075;-54
2021/03/23 01:16:43;;;;;;;4.13;2.25;;;21.80;38.00;;;;;;5056221;28;20021;-53
2021/03/23 01:19:09;;;;;;;4.03;1.98;;;21.80;38.00;;;;;;5056200;28;20029;-53
2021/03/23 01:21:34;;;;;;;2.45;1.90;;;21.80;38.00;;;;;;5055760;28;20051;-55
2021/03/23 01:24:00;;;;;;;2.05;1.80;;;21.70;37.90;;;;;;5055507;28;20380;-51
2021/03/23 01:26:25;;;;;;;2.55;2.20;;;21.70;37.90;;;;;;5055693;28;20049;-54
2021/03/23 01:28:51;;;;;;;3.50;2.10;;;21.70;37.90;;;;;;5055517;28;20036;-57
2021/03/23 01:31:16;;;;;;;2.42;2.22;;;21.70;37.90;;;;;;5056221;28;20035;-57
2021/03/23 01:33:42;;;;;;;4.75;2.30;;;21.70;37.90;;;;;;5055317;28;20025;-57
2021/03/23 01:36:08;;;;;;;1.88;1.73;;;21.70;38.60;;;;;;5055707;28;20124;-57
2021/03/23 01:38:33;;;;;;;2.45;2.05;;;21.70;37.90;;;;;;5055948;28;20017;-57
2021/03/23 01:41:00;;;;;;;2.65;2.20;;;21.60;38.50;;;;;;5055265;28;20094;-55
2021/03/23 01:43:29;;;;;;;2.15;1.95;;;21.60;37.80;;;;;;5055322;28;20108;-55
2021/03/23 01:46:00;;;;;;;2.10;1.90;;;21.60;37.80;;;;;;5055082;28;20029;-54
2021/03/23 01:48:32;;;;;;;2.85;2.00;;;21.60;37.90;;;;;;5037990;28;20052;-55
2021/03/23 01:51:03;;;;;;;2.58;1.83;;;21.60;37.90;;;;;;5037867;28;20108;-51
2021/03/23 01:53:49;;;;;;;2.15;1.90;;;21.50;37.80;;;;;;5055709;28;20029;-51
2021/03/23 01:56:17;;;;;;;2.22;2.03;;;21.60;37.90;;;;;;5055225;28;20060;-56
2021/03/23 01:58:45;;;;;;;2.88;2.03;;;21.50;37.90;;;;;;5054985;28;20016;-52
2021/03/23 02:01:14;;;;;;;2.55;2.10;;;21.50;37.90;;;;;;5055480;28;20060;-52
2021/03/23 02:03:40;;;;;;;2.53;1.80;;;21.50;37.90;;;;;;5055108;28;20040;-58
2021/03/23 02:06:26;;;;;;;2.17;1.98;;;21.50;37.90;;;;;;5055361;28;20040;-50
2021/03/23 02:08:54;;;;;;;3.38;1.85;;;21.40;37.90;;;;;;5055210;28;20174;-55
2021/03/23 02:11:20;;;;;;;2.03;1.83;;;21.50;37.90;;;;;;5055171;28;20025;-56
2021/03/23 02:13:46;;;;;;;2.65;2.08;;;21.40;37.90;;;;;;5054383;28;20417;-59
2021/03/23 02:16:11;;;;;;;2.25;2.05;;;21.40;37.90;;;;;;5037381;28;20035;-56
2021/03/23 02:18:37;;;;;;;3.67;2.53;;;21.40;37.90;;;;;;5055051;28;20321;-56
2021/03/23 02:21:08;;;;;;;3.63;2.08;;;21.40;37.90;;;;;;5054657;28;20029;-54
2021/03/23 02:23:45;;;;;;;3.00;2.30;;;21.40;37.90;;;;;;5037222;28;20063;-54
2021/03/23 02:26:20;;;;;;;2.55;2.22;;;21.40;37.90;;;;;;5054277;28;20060;-58
2021/03/23 02:29:00;;;;;;;2.55;1.80;;;21.40;37.90;;;;;;5054807;28;20040;-57
2021/03/23 02:31:31;;;;;;;2.13;1.73;;;21.30;37.80;;;;;;5054809;28;20113;-56
2021/03/23 02:33:58;;;;;;;2.80;2.10;;;21.30;37.80;;;;;;5054376;28;20029;-55
2021/03/23 02:36:24;;;;;;;2.10;1.85;;;21.30;37.80;;;;;;5054991;28;20040;-56
2021/03/23 02:38:51;;;;;;;2.42;2.10;;;21.30;37.90;;;;;;5054568;28;20025;-56
2021/03/23 02:41:17;;;;;;;5.10;2.08;;;21.30;37.80;;;;;;5054716;28;20029;-55
2021/03/23 02:43:43;;;;;;;2.83;2.15;;;21.30;37.90;;;;;;5054707;28;20056;-58
2021/03/23 02:46:08;;;;;;;5.32;2.38;;;21.30;37.80;;;;;;5054710;28;20075;-55
2021/03/23 02:48:34;;;;;;;2.03;1.85;;;21.20;37.80;;;;;;5037163;28;20033;-53
2021/03/23 02:51:00;;;;;;;2.83;2.00;;;21.20;38.40;;;;;;5054243;28;20029;-52
2021/03/23 02:53:26;;;;;;;2.00;1.70;;;21.20;37.80;;;;;;5054606;28;20105;-56
2021/03/23 02:55:51;;;;;;;1.60;1.50;;;21.20;37.70;;;;;;5054517;28;20056;-57
2021/03/23 02:58:17;;;;;;;2.25;2.05;;;21.20;37.70;;;;;;5054755;28;20044;-55
2021/03/23 03:00:43;;;;;;;1.70;1.60;;;21.20;37.80;;;;;;5054502;28;20025;-55
2021/03/23 03:03:09;;;;;;;1.98;1.70;;;21.20;37.80;;;;;;5054427;28;20029;-52
2021/03/23 03:05:35;;;;;;;2.17;1.85;;;21.20;37.70;;;;;;5054454;28;20114;-57
2021/03/23 03:08:01;;;;;;;2.83;2.00;;;21.10;37.70;;;;;;5054709;28;20100;-55
2021/03/23 03:10:26;;;;;;;1.80;1.67;;;21.10;37.70;;;;;;5054568;28;20029;-57
2021/03/23 03:12:53;;;;;;;2.50;2.08;;;21.10;37.70;;;;;;5054670;28;20029;-55
2021/03/23 03:15:18;;;;;;;2.38;1.98;;;21.10;37.70;;;;;;5054174;28;20032;-53
2021/03/23 03:17:44;;;;;;;3.63;2.47;;;21.10;37.70;;;;;;5054586;28;20025;-52
2021/03/23 03:20:12;;;;;;;2.05;1.85;;;21.10;37.70;;;;;;5054780;28;20037;-50
2021/03/23 03:22:37;;;;;;;2.67;1.92;;;21.10;37.70;;;;;;5054333;28;20337;-56
2021/03/23 03:25:05;;;;;;;2.38;2.17;;;21.00;37.70;;;;;;5055157;28;20035;-55
2021/03/23 03:27:30;;;;;;;2.33;2.13;;;21.00;37.70;;;;;;5058416;28;20049;-53
2021/03/23 03:29:56;;;;;;;2.30;2.10;;;21.00;37.70;;;;;;5057847;28;20036;-54
2021/03/23 03:32:22;;;;;;;3.15;1.95;;;21.00;37.70;;;;;;5057792;28;20021;-56
2021/03/23 03:34:48;;;;;;;3.97;2.20;;;21.00;37.70;;;;;;5057917;28;20029;-55
2021/03/23 03:37:13;;;;;;;2.83;1.98;;;21.00;37.80;;;;;;5057948;28;20028;-54
2021/03/23 03:39:39;;;;;;;2.88;2.28;;;21.00;37.80;;;;;;5057824;28;20462;-53
2021/03/23 03:42:05;;;;;;;3.30;2.45;;;20.90;37.70;;;;;;5057820;28;20032;-53
2021/03/23 03:44:31;;;;;;;3.05;2.35;;;20.90;37.70;;;;;;5057244;28;20027;-55
2021/03/23 03:46:57;;;;;;;2.58;1.98;;;20.90;37.70;;;;;;5057349;28;20388;-54
2021/03/23 03:49:22;;;;;;;3.33;2.40;;;20.90;37.80;;;;;;5057872;28;20029;-56
2021/03/23 03:51:48;;;;;;;2.65;2.17;;;20.90;37.80;;;;;;5057906;28;20083;-59
2021/03/23 03:54:13;;;;;;;2.28;2.08;;;20.90;37.80;;;;;;5057754;28;20026;-52
2021/03/23 03:56:39;;;;;;;3.00;2.28;;;20.90;37.80;;;;;;5057649;28;20033;-55
2021/03/23 03:59:04;;;;;;;2.63;2.28;;;20.90;37.80;;;;;;5057406;28;20395;-54
2021/03/23 04:01:30;;;;;;;2.50;2.28;;;20.90;37.80;;;;;;5039888;28;20025;-58
2021/03/23 04:03:55;;;;;;;2.55;2.35;;;20.90;37.80;;;;;;5057402;28;20048;-56
2021/03/23 04:06:21;;;;;;;2.67;2.45;;;20.80;37.80;;;;;;5057228;28;20038;-54
2021/03/23 04:08:47;;;;;;;5.07;2.28;;;20.80;37.80;;;;;;5057325;28;20017;-50
2021/03/23 04:11:12;;;;;;;3.22;2.47;;;20.90;38.50;;;;;;5057190;28;20063;-50
2021/03/23 04:13:38;;;;;;;4.57;2.97;;;20.80;37.80;;;;;;5057019;28;20100;-54
2021/03/23 04:16:06;;;;;;;3.40;3.10;;;20.80;37.80;;;;;;5057671;28;20406;-55
2021/03/23 04:18:32;;;;;;;4.15;2.67;;;20.80;37.80;;;;;;5057026;28;20017;-53
2021/03/23 04:21:00;;;;;;;3.13;2.80;;;20.80;37.80;;;;;;5057212;28;20021;-51
2021/03/23 04:23:35;;;;;;;7.03;3.10;;;20.80;37.80;;;;;;5056829;28;20431;-49
2021/03/23 04:26:02;;;;;;;3.25;2.50;;;20.80;37.80;;;;;;5056908;28;20017;-54
2021/03/23 04:28:28;;;;;;;3.70;3.05;;;20.70;37.80;;;;;;5056528;28;20132;-55
2021/03/23 04:30:54;;;;;;;4.35;2.95;;;20.80;37.80;;;;;;5057217;28;20056;-54
2021/03/23 04:33:23;;;;;;;3.67;2.88;;;20.70;37.80;;;;;;5056840;28;20032;-53
2021/03/23 04:35:55;;;;;;;3.30;3.00;;;20.70;37.80;;;;;;5056406;28;20033;-53
2021/03/23 04:38:35;;;;;;;5.13;3.17;;;20.70;37.80;;;;;;5056807;28;20021;-53
2021/03/23 04:41:08;;;;;;;3.70;3.00;;;20.70;37.80;;;;;;5055842;28;20031;-54
2021/03/23 04:43:37;;;;;;;2.92;2.72;;;20.70;37.80;;;;;;5056800;28;20036;-53
2021/03/23 04:46:03;;;;;;;4.15;3.58;;;20.70;37.80;;;;;;5056525;28;20036;-53
2021/03/23 04:48:28;;;;;;;3.53;2.97;;;20.60;37.80;;;;;;5056574;28;20025;-53
2021/03/23 04:50:55;;;;;;;3.33;3.00;;;20.60;37.80;;;;;;5056277;28;20406;-54
2021/03/23 04:53:26;;;;;;;4.18;3.65;;;20.60;37.80;;;;;;5056476;28;20028;-52
2021/03/23 04:55:53;;;;;;;4.13;3.55;;;20.60;37.80;;;;;;5055977;28;20436;-55
2021/03/23 04:58:19;;;;;;;4.10;3.47;;;20.60;37.80;;;;;;5056563;28;20025;-56
2021/03/23 05:00:45;;;;;;;3.90;3.60;;;20.70;37.90;;;;;;5056478;28;20017;-51
2021/03/23 05:03:14;;;;;;;4.68;3.33;;;20.60;37.80;;;;;;5038746;28;20112;-52
2021/03/23 05:05:40;;;;;;;5.28;3.65;;;20.60;37.80;;;;;;5056348;28;20025;-50
2021/03/23 05:08:06;;;;;;;4.97;3.40;;;20.60;37.90;;;;;;5055810;28;20124;-55
2021/03/23 05:10:31;;;;;;;6.03;3.60;;;20.60;37.90;;;;;;5056304;28;20059;-56
2021/03/23 05:12:57;;;;;;;4.38;3.50;;;20.50;38.50;;;;;;5056123;28;20025;-53
2021/03/23 05:15:22;;;;;;;4.75;3.90;;;20.50;37.80;;;;;;5056311;28;20364;-58
2021/03/23 05:17:48;;;;;;;4.07;3.67;;;20.50;37.80;;;;;;5055950;28;20036;-57
2021/03/23 05:20:14;;;;;;;4.25;3.85;;;20.50;37.90;;;;;;5056198;28;20336;-53
2021/03/23 05:22:40;;;;;;;4.70;3.97;;;20.50;37.90;;;;;;5038406;28;20400;-58
2021/03/23 05:25:06;;;;;;;3.85;3.55;;;20.50;37.90;;;;;;5055770;28;20056;-55
2021/03/23 05:27:31;;;;;;;5.03;3.90;;;20.50;37.90;;;;;;5056003;28;20080;-53
2021/03/23 05:29:57;;;;;;;3.58;3.17;;;20.50;38.00;;;;;;5055873;28;20028;-54
2021/03/23 05:32:22;;;;;;;4.05;3.65;;;20.50;38.00;;;;;;5055810;28;20025;-56
2021/03/23 05:34:48;;;;;;;4.07;3.22;;;20.50;38.00;;;;;;5055768;28;20033;-57
2021/03/23 05:37:13;;;;;;;4.00;3.60;;;20.50;38.10;;;;;;5055806;28;20086;-57
2021/03/23 05:39:41;;;;;;;4.28;3.88;;;20.50;38.10;;;;;;5055504;28;20344;-57
2021/03/23 05:42:15;;;;;;;4.32;3.45;;;20.40;38.10;;;;;;5055558;28;20025;-48
2021/03/23 05:44:52;;;;;;;5.20;3.50;;;20.40;38.10;;;;;;5055525;28;20044;-56
2021/03/23 05:47:20;;;;;;;7.65;3.92;;;20.40;38.20;;;;;;5036993;28;20351;-56
2021/03/23 05:49:56;;;;;;;6.50;3.40;;;20.40;38.20;;;;;;5055243;28;20025;-53
2021/03/23 05:52:34;;;;;;;4.30;3.72;;;20.40;38.30;;;;;;5055011;28;20049;-55
2021/03/23 05:55:34;;;;;;;9.05;4.10;;;20.40;38.30;;;;;;5055358;28;20021;-55
2021/03/23 05:58:00;;;;;;;4.35;3.50;;;20.40;38.30;;;;;;5055206;28;20036;-54
2021/03/23 06:00:36;;;;;;;5.68;3.92;;;20.40;38.30;;;;;;5055219;28;20025;-54
2021/03/23 06:03:05;;;;;;;6.22;3.92;;;20.40;38.40;;;;;;5055148;28;20075;-52
2021/03/23 06:05:46;;;;;;;5.38;3.63;;;20.40;38.40;;;;;;5055787;28;20356;-55
2021/03/23 06:08:23;;;;;;;11.20;5.15;;;20.40;38.40;;;;;;5058918;28;20060;-54
2021/03/23 06:10:54;;;;;;;10.52;7.32;;;20.30;38.30;;;;;;5070005;28;20024;-53
2021/03/23 06:13:31;;;;;;;11.27;6.63;;;20.30;37.70;;;;;;5055070;28;20041;-56
2021/03/23 06:16:19;;;;;;;14.63;6.35;;;20.30;37.80;;;;;;5054994;28;20104;-55
2021/03/23 06:19:22;;;;;;;9.13;6.22;;;20.30;38.40;;;;;;5072679;28;20016;-51
2021/03/23 06:22:01;;;;;;;9.18;5.32;;;20.20;38.20;;;;;;5074890;28;20067;-53
2021/03/23 06:24:48;;;;;;;8.65;5.85;;;20.10;38.70;;;;;;5074472;28;20016;-57
2021/03/23 06:27:24;;;;;;;8.25;6.03;;;20.10;38.50;;;;;;5069221;28;20052;-51
2021/03/23 06:29:52;;;;;;;12.38;5.97;;;20.10;38.60;;;;;;5074634;28;20461;-57
2021/03/23 06:32:39;;;;;;;11.15;7.05;;;20.10;38.60;;;;;;5074534;28;20024;-55
2021/03/23 06:35:09;;;;;;;11.20;6.28;;;20.10;38.40;;;;;;5074695;28;20031;-57
2021/03/23 06:37:40;;;;;;;10.30;6.60;;;20.00;38.50;;;;;;5074615;28;20039;-53
2021/03/23 06:40:23;;;;;;;17.92;6.50;;;20.10;38.70;;;;;;5074492;28;20025;-57
2021/03/23 06:42:52;;;;;;;33.08;7.13;;;20.00;39.30;;;;;;5074778;28;20031;-55
2021/03/23 06:45:31;;;;;;;10.88;6.82;;;20.00;39.00;;;;;;5074703;28;20028;-53
2021/03/23 06:48:18;;;;;;;15.90;6.57;;;20.00;39.00;;;;;;5066530;28;20332;-56
2021/03/23 06:50:43;;;;;;;12.38;6.20;;;20.00;39.20;;;;;;5063444;28;20021;-49
2021/03/23 06:53:19;;;;;;;12.50;6.78;;;20.00;39.20;;;;;;5054544;28;20025;-54
2021/03/23 06:55:46;;;;;;;10.43;6.57;;;20.00;39.40;;;;;;5054560;28;20025;-56
2021/03/23 06:58:22;;;;;;;14.02;5.90;;;20.00;39.30;;;;;;5054383;28;20036;-51
2021/03/23 07:01:18;;;;;;;17.45;6.18;;;20.00;39.70;;;;;;5058363;28;20071;-57
2021/03/23 07:03:47;;;;;;;13.73;5.75;;;20.10;39.90;;;;;;5058218;28;20021;-53
2021/03/23 07:06:26;;;;;;;13.57;6.22;;;20.10;40.00;;;;;;5058657;28;20025;-53
2021/03/23 07:09:06;;;;;;;13.25;6.30;;;20.10;40.00;;;;;;5058473;28;20074;-53
2021/03/23 07:12:03;;;;;;;9.38;5.38;;;20.10;40.00;;;;;;5057934;28;20039;-52
2021/03/23 07:14:31;;;;;;;12.32;5.45;;;20.10;40.00;;;;;;5048324;28;20055;-55
2021/03/23 07:17:20;;;;;;;13.68;5.50;;;20.10;40.70;;;;;;5058022;28;20111;-55
2021/03/23 07:19:46;;;;;;;14.02;6.18;;;20.20;40.10;;;;;;5045415;28;20064;-56
2021/03/23 07:22:41;;;;;;;15.02;6.10;;;20.10;40.00;;;;;;5058296;28;20097;-56
2021/03/23 07:25:29;;;;;;;14.70;7.55;;;20.10;40.00;;;;;;5057905;28;20033;-55
2021/03/23 07:28:22;;;;;;;11.50;6.43;;;20.10;39.60;;;;;;5058303;28;20085;-54
2021/03/23 07:31:04;;;;;;;14.95;7.03;;;20.10;39.80;;;;;;5058281;28;20394;-53
2021/03/23 07:33:54;;;;;;;17.27;7.40;;;20.10;40.10;;;;;;5058620;28;20029;-56
2021/03/23 07:36:26;;;;;;;15.95;6.32;;;20.10;40.50;;;;;;5057657;28;20029;-49
2021/03/23 07:38:57;;;;;;;13.05;6.35;;;20.10;40.50;;;;;;5057870;28;20029;-54
2021/03/23 07:41:48;;;;;;;10.52;5.85;;;20.20;40.50;;;;;;5058034;28;20020;-50
2021/03/23 07:44:40;;;;;;;8.07;5.78;;;20.10;40.40;;;;;;5057755;28;20036;-53
2021/03/23 07:47:16;;;;;;;14.48;5.35;;;20.10;40.50;;;;;;5057824;28;20032;-57
2021/03/23 07:49:55;;;;;;;11.52;5.32;;;20.20;40.60;;;;;;5058097;28;20025;-55
2021/03/23 07:52:30;;;;;;;11.68;5.03;;;20.20;40.60;;;;;;5057965;28;20021;-52
2021/03/23 07:54:59;;;;;;;11.00;4.97;;;20.30;40.60;;;;;;5057222;28;20090;-51
2021/03/23 07:57:45;;;;;;;6.50;4.80;;;20.30;40.60;;;;;;5057761;28;20032;-50
2021/03/23 08:00:22;;;;;;;11.13;4.90;;;20.40;40.60;;;;;;5039826;28;20021;-51
2021/03/23 08:03:00;;;;;;;8.38;5.45;;;20.40;40.60;;;;;;5039847;28;20425;-56
2021/03/23 08:05:47;;;;;;;6.97;4.43;;;20.50;40.70;;;;;;5056879;28;20033;-53
2021/03/23 08:08:16;;;;;;;8.48;5.32;;;20.50;40.70;;;;;;5057257;28;20060;-53
2021/03/23 08:11:00;;;;;;;13.25;5.15;;;20.60;40.80;;;;;;5056638;28;20033;-52
2021/03/23 08:13:44;;;;;;;10.00;5.40;;;20.60;40.70;;;;;;5057264;28;20095;-56
2021/03/23 08:16:39;;;;;;;6.82;4.22;;;20.60;40.70;;;;;;5057311;28;20443;-51
2021/03/23 08:19:22;;;;;;;9.88;4.75;;;20.70;40.60;;;;;;5056858;28;20057;-55
2021/03/23 08:22:13;;;;;;;9.32;5.00;;;20.70;40.50;;;;;;5057190;28;20013;-53
2021/03/23 08:25:07;;;;;;;8.32;4.93;;;20.70;40.50;;;;;;5057193;28;20447;-68
2021/03/23 08:27:48;;;;;;;7.28;4.32;;;20.80;40.40;;;;;;5056918;28;20045;-57
2021/03/23 08:30:33;;;;;;;14.10;5.47;;;20.80;40.40;;;;;;5056693;28;20044;-56
2021/03/23 08:33:07;;;;;;;13.68;4.80;;;20.80;40.50;;;;;;5057034;28;20051;-54
2021/03/23 08:35:51;;;;;;;19.17;5.28;;;20.80;40.60;;;;;;5056532;28;20029;-53
2021/03/23 08:38:41;;;;;;;19.00;5.00;;;20.90;40.70;;;;;;5056552;28;20459;-55
2021/03/23 08:41:32;;;;;;;15.02;5.43;;;20.90;40.70;;;;;;5056798;28;20025;-57
2021/03/23 08:43:58;;;;;;;20.83;5.82;;;20.90;40.80;;;;;;5056804;28;20399;-57
2021/03/23 08:46:28;;;;;;;11.27;5.13;;;20.90;40.80;;;;;;5038542;28;20028;-55
2021/03/23 08:48:59;;;;;;;12.05;5.68;;;21.00;40.90;;;;;;5056407;28;20040;-53
2021/03/23 08:51:27;;;;;;;11.45;5.35;;;21.00;40.80;;;;;;5056964;28;20094;-56
2021/03/23 08:53:55;;;;;;;10.48;5.60;;;21.10;40.90;;;;;;5056689;28;20025;-54
2021/03/23 08:56:45;;;;;;;9.45;5.75;;;21.10;40.90;;;;;;5039159;28;20107;-54
2021/03/23 08:59:38;;;;;;;11.27;5.75;;;21.10;40.90;;;;;;5056262;28;20374;-55
2021/03/23 09:02:09;;;;;;;16.73;6.85;;;21.10;41.00;;;;;;5056201;28;20024;-56
2021/03/23 09:05:03;;;;;;;10.82;5.75;;;21.10;40.90;;;;;;5056295;28;20033;-57
2021/03/23 09:07:32;;;;;;;13.30;5.80;;;21.10;41.00;;;;;;5055086;28;20376;-57
2021/03/23 09:09:58;;;;;;;13.60;6.00;;;21.10;41.00;;;;;;5056197;28;20096;-57
2021/03/23 09:12:41;;;;;;;12.80;6.72;;;21.10;41.10;;;;;;5055976;28;20029;-57
2021/03/23 09:15:15;;;;;;;12.75;6.22;;;21.20;41.10;;;;;;5056185;28;20024;-53
2021/03/23 09:18:05;;;;;;;10.38;6.13;;;21.10;41.00;;;;;;5055776;28;20116;-56
2021/03/23 09:20:31;;;;;;;13.90;7.20;;;21.10;41.10;;;;;;5056039;28;20348;-56
2021/03/23 09:23:17;;;;;;;15.43;7.45;;;21.10;41.10;;;;;;5056088;28;20029;-53
2021/03/23 09:25:44;;;;;;;15.63;7.57;;;21.10;41.10;;;;;;5038452;28;20055;-54
2021/03/23 09:28:12;;;;;;;14.43;6.63;;;21.10;41.20;;;;;;5054981;28;20049;-55
2021/03/23 09:30:47;;;;;;;13.50;7.25;;;21.10;41.20;;;;;;5055781;28;20025;-54
2021/03/23 09:33:18;;;;;;;15.25;6.10;;;21.10;41.10;;;;;;5056121;28;20045;-56
2021/03/23 09:38:44;;;;;;;11.23;6.75;;;21.10;41.10;;;;;;5055397;28;20471;-57
2021/03/23 09:41:36;;;;;;;14.10;7.00;;;21.10;41.10;;;;;;5055991;28;20052;-56
2021/03/23 09:44:04;;;;;;;16.83;6.85;;;21.10;41.10;;;;;;5055525;28;20021;-56
2021/03/23 09:46:39;;;;;;;14.02;6.57;;;21.10;41.20;;;;;;5055278;28;20033;-55
2021/03/23 09:49:20;;;;;;;11.18;6.05;;;21.10;41.30;;;;;;5055444;28;20055;-54
2021/03/23 09:52:00;;;;;;;11.38;6.05;;;21.10;41.30;;;;;;5055085;28;20359;-55
2021/03/23 09:54:28;;;;;;;12.35;7.68;;;21.10;41.30;;;;;;5055724;28;20132;-55
2021/03/23 09:56:58;;;;;;;12.80;7.53;;;21.10;41.20;;;;;;5055311;28;20029;-55
2021/03/23 09:59:32;;;;;;;16.00;7.18;;;21.10;41.30;;;;;;5055013;28;20029;-53
2021/03/23 10:01:59;;;;;;;11.93;7.50;;;21.10;41.30;;;;;;5055103;28;20494;-52
2021/03/23 10:04:41;;;;;;;15.32;6.75;;;21.10;41.20;;;;;;5054951;28;20025;-53
2021/03/23 10:07:24;;;;;;;13.60;6.72;;;21.10;41.20;;;;;;5055252;28;20032;-54
2021/03/23 10:09:49;;;;;;;12.98;6.72;;;21.10;41.20;;;;;;5055070;28;20036;-51
2021/03/23 10:12:37;;;;;;;15.55;7.68;;;21.10;41.20;;;;;;5064808;28;20039;-58
2021/03/23 10:15:21;;;;;;;14.55;8.90;;;21.10;41.20;;;;;;5074921;28;20037;-58
2021/03/23 10:17:47;;;;;;;17.05;9.07;;;21.10;40.90;;;;;;5059803;28;20033;-55
2021/03/23 10:20:17;;;;;;;17.45;8.70;;;21.10;41.00;;;;;;5054972;28;20025;-58
2021/03/23 10:22:54;;;;;;;18.05;8.60;;;21.10;41.10;;;;;;5059690;28;20020;-55
2021/03/23 10:25:21;;;;;;;16.08;8.70;;;21.10;41.10;;;;;;5074856;28;20107;-52
2021/03/23 10:27:48;;;;;;;14.05;8.50;;;21.10;41.20;;;;;;5054876;28;20456;-50
2021/03/23 10:30:15;;;;;;;18.73;9.02;;;21.10;41.00;;;;;;5044057;28;20027;-56
2021/03/23 10:32:56;;;;;;;15.68;9.95;;;21.10;40.90;;;;;;5059358;28;20091;-52
2021/03/23 10:35:50;;;;;;;28.50;10.27;;;21.10;40.90;;;;;;5054584;28;20044;-50
2021/03/23 10:38:19;;;;;;;15.65;8.77;;;21.10;40.90;;;;;;5054928;28;20021;-50
2021/03/23 10:40:47;;;;;;;16.63;8.35;;;21.10;40.90;;;;;;5037550;28;20332;-52
2021/03/23 10:43:28;;;;;;;17.83;11.10;;;21.10;41.00;;;;;;5054465;28;20071;-57
2021/03/23 10:45:55;;;;;;;20.98;11.82;;;21.10;41.30;;;;;;5054646;28;20038;-51
2021/03/23 10:48:37;;;;;;;21.98;11.00;;;21.10;41.90;;;;;;5054797;28;20036;-50
2021/03/23 10:51:22;;;;;;;16.55;9.50;;;21.00;42.80;;;;;;5037281;28;20032;-54
2021/03/23 10:54:06;;;;;;;16.35;9.55;;;21.10;43.90;;;;;;5062511;28;20511;-56
2021/03/23 10:56:34;;;;;;;19.60;9.88;;;21.10;44.10;;;;;;5065217;28;20063;-53
2021/03/23 10:59:11;;;;;;;16.10;8.60;;;21.10;44.40;;;;;;5054262;28;20502;-51
2021/03/23 11:01:58;;;;;;;17.25;7.82;;;21.10;44.70;;;;;;5065141;28;20033;-54
2021/03/23 11:04:24;;;;;;;17.23;7.22;;;21.20;44.70;;;;;;5074398;28;20020;-55
2021/03/23 11:06:50;;;;;;;16.85;7.43;;;21.10;44.70;;;;;;5054357;28;20041;-53
2021/03/23 11:09:17;;;;;;;14.20;7.00;;;21.20;45.00;;;;;;5054462;28;20451;-52
2021/03/23 11:11:46;;;;;;;11.85;7.65;;;21.10;45.30;;;;;;5054429;28;20108;-54
2021/03/23 11:14:13;;;;;;;9.82;6.50;;;21.20;45.20;;;;;;5054172;28;20432;-52
2021/03/23 11:16:42;;;;;;;12.38;5.72;;;21.20;45.30;;;;;;5054186;28;20023;-56
2021/03/23 11:19:25;;;;;;;14.18;7.25;;;21.20;45.40;;;;;;5054364;28;20025;-55
2021/03/23 11:21:53;;;;;;;11.57;6.75;;;21.20;45.70;;;;;;5054487;28;20451;-55
2021/03/23 11:24:19;;;;;;;20.15;8.45;;;21.20;45.60;;;;;;5054170;28;20049;-56
2021/03/23 11:26:44;;;;;;;12.75;8.23;;;21.20;45.30;;;;;;5057480;28;20087;-56
2021/03/23 11:29:14;;;;;;;18.48;7.63;;;21.20;45.40;;;;;;5071972;28;20028;-56
2021/03/23 11:31:40;;;;;;;11.75;6.68;;;21.20;44.70;;;;;;5074404;28;20025;-55
2021/03/23 11:34:06;;;;;;;15.25;7.15;;;21.20;44.40;;;;;;5074559;28;20553;-58
2021/03/23 11:36:32;;;;;;;14.02;6.35;;;21.20;44.10;;;;;;5074075;28;20025;-56
2021/03/23 11:38:58;;;;;;;12.30;6.05;;;21.30;44.10;;;;;;5074199;28;20081;-53
2021/03/23 11:41:36;;;;;;;12.20;6.43;;;21.30;43.90;;;;;;5074144;28;20497;-55
2021/03/23 11:44:18;;;;;;;11.73;6.93;;;21.30;43.80;;;;;;5066445;28;20029;-52
2021/03/23 11:47:02;;;;;;;13.93;6.88;;;21.30;43.60;;;;;;5056556;28;20029;-52
2021/03/23 11:50:03;;;;;;;11.85;6.95;;;21.40;43.60;;;;;;5057726;28;20021;-50
2021/03/23 11:52:29;;;;;;;8.35;5.93;;;21.40;43.50;;;;;;5058407;28;20029;-50
2021/03/23 11:54:55;;;;;;;8.75;5.85;;;21.30;43.40;;;;;;5057736;28;20096;-54
2021/03/23 11:57:21;;;;;;;8.70;5.97;;;21.40;43.40;;;;;;5057629;28;20432;-54
2021/03/23 11:59:47;;;;;;;7.55;5.75;;;21.40;43.40;;;;;;5057629;28;20109;-50
2021/03/23 12:02:13;;;;;;;12.07;5.50;;;21.40;43.30;;;;;;5060634;28;20025;-52
2021/03/23 12:04:39;;;;;;;8.30;6.13;;;21.40;43.30;;;;;;5067361;28;20017;-52
2021/03/23 12:07:30;;;;;;;8.27;6.00;;;21.40;43.20;;;;;;5068567;28;20028;-51
2021/03/23 12:10:06;;;;;;;12.00;5.63;;;21.40;43.20;;;;;;5077716;28;20086;-52
2021/03/23 12:12:47;;;;;;;9.35;5.63;;;21.40;43.10;;;;;;5076808;28;20336;-56
2021/03/23 12:15:33;;;;;;;9.00;6.13;;;21.40;43.10;;;;;;5077310;28;20024;-55
2021/03/23 12:18:03;;;;;;;16.80;7.15;;;21.50;43.10;;;;;;5077189;28;20016;-52
2021/03/23 12:20:30;;;;;;;15.10;7.50;;;21.40;42.90;;;;;;5077185;28;20025;-56
2021/03/23 12:22:57;;;;;;;19.60;6.80;;;21.50;43.20;;;;;;5077281;28;20017;-56
2021/03/23 12:25:24;;;;;;;13.35;8.30;;;21.40;44.20;;;;;;5076929;28;20025;-56
2021/03/23 12:27:49;;;;;;;18.52;8.32;;;21.40;45.30;;;;;;5077835;28;20048;-51
2021/03/23 12:30:15;;;;;;;12.00;8.23;;;21.40;45.60;;;;;;5077070;28;20040;-57
2021/03/23 12:32:41;;;;;;;14.15;8.15;;;21.50;46.30;;;;;;5076907;28;20031;-56
2021/03/23 12:35:12;;;;;;;16.05;9.85;;;21.40;46.70;;;;;;5077089;28;20032;-53
2021/03/23 12:37:40;;;;;;;13.68;9.60;;;21.50;46.70;;;;;;5076598;28;20025;-56
2021/03/23 12:40:08;;;;;;;19.02;9.18;;;21.50;46.60;;;;;;5076790;28;20324;-53
2021/03/23 12:42:33;;;;;;;17.67;9.57;;;21.50;46.60;;;;;;5076798;28;20427;-54
2021/03/23 12:45:00;;;;;;;17.27;10.20;;;21.40;46.50;;;;;;5076790;28;20020;-57
2021/03/23 12:47:26;;;;;;;18.23;9.57;;;21.40;46.30;;;;;;5076222;28;20119;-55
2021/03/23 12:49:51;;;;;;;13.45;8.45;;;21.50;46.30;;;;;;5076602;28;20092;-55
2021/03/23 12:52:21;;;;;;;16.23;9.45;;;21.50;46.20;;;;;;5076770;28;20028;-52
2021/03/23 12:54:49;;;;;;;14.65;9.75;;;21.50;46.00;;;;;;5076082;28;20023;-53
2021/03/23 12:57:25;;;;;;;15.07;9.05;;;21.50;45.90;;;;;;5076134;28;20044;-50
2021/03/23 12:59:54;;;;;;;18.63;10.07;;;21.50;45.90;;;;;;5076501;28;20017;-53
2021/03/23 13:02:24;;;;;;;14.32;10.43;;;21.40;45.80;;;;;;5076066;28;20021;-54
2021/03/23 13:04:50;;;;;;;13.93;9.52;;;21.50;45.80;;;;;;5058581;28;20033;-55
2021/03/23 13:07:22;;;;;;;14.80;9.93;;;21.50;45.70;;;;;;5075967;28;20584;-48
2021/03/23 13:09:48;;;;;;;14.00;9.27;;;21.50;45.60;;;;;;5075990;28;20029;-53